Time;durP1;ratioP1;P1;durP2;ratioP2;P2;SDS_P1;SDS_P2;PMS_P1;PMS_P2;Temp;Humidity;BMP_temperature;BMP_pressure;BME280_temperature;BME280_humidity;BME280_pressure;Samples;Min_cycle;Max_cycle;Signal;HPM_P1;HPM_P2
2022/05/20 00:00:06;;;;;;;31.60;22.20;;;;;;;18.57;60.29;101545.16;687826;28;1219;-79
2022/05/20 00:00:27;;;;;;;31.63;21.98;;;;;;;18.49;60.46;101547.72;687938;28;1353;-79
2022/05/20 00:00:49;;;;;;;28.95;22.10;;;;;;;18.57;60.62;101555.72;685117;28;1299;-80
2022/05/20 00:01:12;;;;;;;30.27;21.80;;;;;;;18.57;60.65;101553.94;687989;28;1470;-79
2022/05/20 00:01:33;;;;;;;30.30;21.33;;;;;;;18.46;60.50;101540.69;687565;28;1130;-79
2022/05/20 00:01:54;;;;;;;29.58;20.42;;;;;;;18.43;60.67;101548.56;690527;28;1251;-79
2022/05/20 00:02:14;;;;;;;29.90;20.77;;;;;;;18.45;60.57;101551.25;692443;28;1285;-79
2022/05/20 00:02:35;;;;;;;29.00;20.90;;;;;;;18.50;60.45;101553.03;690714;28;804;-80
2022/05/20 00:02:56;;;;;;;30.83;21.95;;;;;;;18.47;60.82;101555.66;687954;28;1443;-79
2022/05/20 00:03:17;;;;;;;30.90;22.10;;;;;;;18.49;60.74;101547.72;692585;28;1225;-80
2022/05/20 00:03:38;;;;;;;31.58;22.10;;;;;;;18.47;60.61;101554.78;690725;28;1252;-80
2022/05/20 00:03:59;;;;;;;30.90;21.75;;;;;;;18.41;60.74;101554.72;685174;28;1369;-79
2022/05/20 00:04:21;;;;;;;30.10;22.10;;;;;;;18.45;60.50;101554.75;687909;28;978;-79
2022/05/20 00:04:41;;;;;;;29.77;22.10;;;;;;;18.43;60.83;101563.56;685170;28;968;-80
2022/05/20 00:05:03;;;;;;;31.02;21.85;;;;;;;18.43;60.74;101556.50;685217;28;1196;-79
2022/05/20 00:05:26;;;;;;;30.38;21.60;;;;;;;18.42;60.84;101551.19;688089;28;725;-80
2022/05/20 00:05:47;;;;;;;29.85;21.40;;;;;;;18.41;60.69;101558.25;687912;28;1088;-79
2022/05/20 00:06:08;;;;;;;28.70;21.83;;;;;;;18.43;60.60;101550.34;682560;28;1154;-79
2022/05/20 00:06:28;;;;;;;30.50;21.30;;;;;;;18.45;60.67;101559.16;688001;28;780;-80
2022/05/20 00:06:49;;;;;;;32.80;21.35;;;;;;;18.41;60.65;101560.91;690508;28;1269;-79
2022/05/20 00:07:10;;;;;;;32.10;20.23;;;;;;;18.45;60.70;101557.41;690554;28;1278;-79
2022/05/20 00:07:31;;;;;;;27.97;19.73;;;;;;;18.38;60.61;101555.56;688029;28;1134;-79
2022/05/20 00:07:51;;;;;;;28.15;20.05;;;;;;;18.39;60.51;101561.75;690648;28;1061;-80
2022/05/20 00:08:12;;;;;;;29.05;20.50;;;;;;;18.44;60.57;101565.34;687955;28;1279;-79
2022/05/20 00:08:33;;;;;;;32.10;21.00;;;;;;;18.40;60.62;101560.88;690725;28;795;-79
2022/05/20 00:08:54;;;;;;;30.73;20.65;;;;;;;18.45;60.64;101573.25;689797;28;1432;-79
2022/05/20 00:09:14;;;;;;;32.58;21.10;;;;;;;18.40;60.76;101571.44;685114;28;1130;-79
2022/05/20 00:09:47;;;;;;;29.93;20.53;;;;;;;18.32;60.77;101556.41;684954;28;729;-79
2022/05/20 00:10:10;;;;;;;29.48;20.60;;;;;;;18.39;60.41;101562.66;696046;28;2073;-79
2022/05/20 00:10:31;;;;;;;27.95;20.60;;;;;;;18.41;60.49;101570.56;687476;28;1493;-79
2022/05/20 00:11:03;;;;;;;29.52;20.52;;;;;;;18.41;60.58;101571.47;682562;29;776;-79
2022/05/20 00:11:24;;;;;;;28.17;19.80;;;;;;;18.36;60.50;101563.50;688005;28;831;-79
2022/05/20 00:11:45;;;;;;;26.90;20.30;;;;;;;18.40;60.53;101569.69;687889;28;982;-80
2022/05/20 00:12:06;;;;;;;28.13;20.47;;;;;;;18.43;60.33;101575.00;687937;28;1100;-79
2022/05/20 00:12:27;;;;;;;29.25;20.52;;;;;;;18.43;60.42;101575.00;682570;28;1443;-79
2022/05/20 00:12:53;;;;;;;31.45;20.85;;;;;;;18.44;60.37;101570.63;693373;28;1288;-80
2022/05/20 00:13:14;;;;;;;31.25;21.05;;;;;;;18.35;60.47;101563.50;693407;28;1020;-79
2022/05/20 00:13:35;;;;;;;29.45;20.83;;;;;;;18.35;60.48;101561.75;690664;28;1235;-79
2022/05/20 00:13:56;;;;;;;32.70;20.83;;;;;;;18.36;60.20;101558.22;687743;28;1379;-78
2022/05/20 00:14:17;;;;;;;33.05;21.27;;;;;;;18.38;60.60;101571.44;682485;29;1104;-78
2022/05/20 00:14:38;;;;;;;33.88;21.58;;;;;;;18.38;60.40;101570.56;687986;28;777;-79
2022/05/20 00:14:59;;;;;;;29.35;21.33;;;;;;;18.41;60.57;101567.94;687835;28;1061;-79
2022/05/20 00:15:22;;;;;;;27.65;20.83;;;;;;;18.36;60.56;101560.88;687986;28;1000;-79
2022/05/20 00:15:43;;;;;;;29.15;20.40;;;;;;;18.39;60.35;101569.69;687967;28;1131;-80
2022/05/20 00:16:04;;;;;;;30.10;20.48;;;;;;;18.38;60.26;101560.00;685263;28;1516;-79
2022/05/20 00:16:24;;;;;;;30.02;20.80;;;;;;;18.39;60.28;101562.66;687887;28;1286;-80
2022/05/20 00:16:45;;;;;;;28.63;21.30;;;;;;;18.38;60.32;101562.63;690058;28;1233;-79
2022/05/20 00:17:06;;;;;;;29.70;21.98;;;;;;;18.36;60.17;101552.94;690523;28;1516;-79
2022/05/20 00:17:26;;;;;;;31.45;21.42;;;;;;;18.40;59.95;101563.53;684910;28;1317;-79
2022/05/20 00:17:47;;;;;;;32.50;21.67;;;;;;;18.46;60.30;101566.22;687295;28;1152;-79
2022/05/20 00:18:07;;;;;;;32.35;21.05;;;;;;;18.47;60.10;101575.91;687906;28;1004;-80
2022/05/20 00:18:28;;;;;;;29.27;20.75;;;;;;;18.41;60.12;101562.66;687515;28;1227;-79
2022/05/20 00:18:49;;;;;;;26.60;20.05;;;;;;;18.43;60.13;101568.84;682608;28;1262;-80
2022/05/20 00:19:10;;;;;;;27.63;20.50;;;;;;;18.40;60.19;101556.50;682649;29;983;-80
2022/05/20 00:19:32;;;;;;;30.93;21.27;;;;;;;18.45;60.01;101559.16;687462;28;1086;-80
2022/05/20 00:19:53;;;;;;;32.28;21.92;;;;;;;18.45;60.14;101554.75;690403;28;1257;-80
2022/05/20 00:20:16;;;;;;;32.30;21.50;;;;;;;18.49;60.02;101563.59;685500;28;1307;-80
2022/05/20 00:20:37;;;;;;;32.90;21.65;;;;;;;18.50;59.89;101571.53;685237;28;1335;-80
2022/05/20 00:21:01;;;;;;;33.05;22.00;;;;;;;18.46;59.97;101553.00;687138;28;1281;-80
2022/05/20 00:21:21;;;;;;;32.17;22.33;;;;;;;18.52;59.87;101566.28;690580;28;1205;-80
2022/05/20 00:21:42;;;;;;;30.98;20.80;;;;;;;18.53;60.10;101561.84;685258;28;1326;-80
2022/05/20 00:22:05;;;;;;;32.13;20.93;;;;;;;18.51;59.79;101567.16;684948;28;1206;-80
2022/05/20 00:22:25;;;;;;;30.73;21.20;;;;;;;18.49;59.90;101558.31;682595;29;1451;-80
2022/05/20 00:22:47;;;;;;;30.45;21.83;;;;;;;18.56;59.84;101570.69;687718;28;1289;-79
2022/05/20 00:23:07;;;;;;;29.65;21.73;;;;;;;18.50;60.02;101566.25;685193;28;1350;-79
2022/05/20 00:23:28;;;;;;;28.20;21.10;;;;;;;18.54;60.19;101566.25;685110;28;1968;-79
2022/05/20 00:23:49;;;;;;;28.77;21.20;;;;;;;18.58;59.95;101576.91;687736;28;1320;-80
2022/05/20 00:24:10;;;;;;;31.10;21.90;;;;;;;18.48;60.09;101557.44;685227;28;1289;-80
2022/05/20 00:24:31;;;;;;;32.23;22.00;;;;;;;18.52;60.09;101565.38;687806;28;1287;-80
2022/05/20 00:25:46;;;;;;;30.60;20.73;;;;;;;18.55;60.11;101568.06;693290;28;806;-80
2022/05/20 00:26:07;;;;;;;30.63;21.75;;;;;;;18.50;60.07;101565.34;690536;28;1205;-80
2022/05/20 00:26:28;;;;;;;28.43;21.63;;;;;;;18.58;60.09;101574.25;682648;29;1177;-79
2022/05/20 00:26:50;;;;;;;28.55;21.25;;;;;;;18.51;60.25;101561.88;685030;28;1096;-80
2022/05/20 00:27:11;;;;;;;28.88;21.42;;;;;;;18.57;60.07;101569.81;685298;28;992;-80
2022/05/20 00:27:32;;;;;;;30.73;21.52;;;;;;;18.48;60.07;101553.91;691780;28;1179;-80
2022/05/20 00:27:52;;;;;;;31.30;21.43;;;;;;;18.54;60.21;101567.16;687903;28;1395;-80
2022/05/20 00:28:21;;;;;;;31.45;21.55;;;;;;;18.52;60.21;101562.72;687949;28;1253;-80
2022/05/20 00:28:46;;;;;;;30.83;21.42;;;;;;;18.54;60.15;101560.97;693242;28;908;-80
2022/05/20 00:29:07;;;;;;;30.83;22.17;;;;;;;18.55;60.17;101563.63;692676;28;1154;-81
2022/05/20 00:29:27;;;;;;;31.35;22.60;;;;;;;18.53;60.36;101565.41;695986;28;1092;-79
2022/05/20 00:29:48;;;;;;;32.80;22.93;;;;;;;18.49;60.14;101555.66;695434;28;1290;-80
2022/05/20 00:30:09;;;;;;;31.30;22.10;;;;;;;18.47;60.33;101558.31;690674;28;1103;-80
2022/05/20 00:30:31;;;;;;;30.40;21.70;;;;;;;18.47;60.46;101560.97;687939;28;1325;-80
2022/05/20 00:30:55;;;;;;;30.23;21.42;;;;;;;18.50;60.41;101560.97;695979;28;1223;-80
2022/05/20 00:31:17;;;;;;;30.50;21.67;;;;;;;18.51;60.40;101561.88;690549;28;1242;-80
2022/05/20 00:31:37;;;;;;;31.42;22.20;;;;;;;18.47;60.49;101558.31;693292;28;1256;-80
2022/05/20 00:31:58;;;;;;;30.17;21.73;;;;;;;18.53;60.38;101570.69;690391;28;1128;-80
2022/05/20 00:32:19;;;;;;;30.00;21.95;;;;;;;18.53;60.53;101565.41;690457;28;1247;-81
2022/05/20 00:32:40;;;;;;;31.50;22.70;;;;;;;18.50;60.32;101566.25;690713;28;1183;-80
2022/05/20 00:33:01;;;;;;;30.10;22.70;;;;;;;18.48;60.51;101562.72;690658;28;1188;-79
2022/05/20 00:33:22;;;;;;;31.27;23.00;;;;;;;18.51;60.42;101572.44;690530;28;1263;-80
2022/05/20 00:33:43;;;;;;;29.75;22.17;;;;;;;18.52;60.51;101571.56;687906;28;784;-80
2022/05/20 00:34:04;;;;;;;31.58;22.55;;;;;;;18.44;60.50;101560.03;687683;28;1261;-79
2022/05/20 00:34:24;;;;;;;31.58;22.77;;;;;;;18.41;60.67;101557.34;693365;28;1156;-79
2022/05/20 00:34:45;;;;;;;32.13;23.20;;;;;;;18.41;60.69;101549.44;690513;28;1220;-79
2022/05/20 00:35:07;;;;;;;32.30;23.10;;;;;;;18.47;60.82;101565.34;690530;28;1201;-80
2022/05/20 00:35:27;;;;;;;33.10;22.85;;;;;;;18.41;60.72;101549.44;687957;28;1358;-79
2022/05/20 00:35:48;;;;;;;34.33;23.20;;;;;;;18.43;60.72;101558.28;690427;28;1284;-80
2022/05/20 00:36:09;;;;;;;33.08;22.98;;;;;;;18.46;60.61;101564.47;695087;28;1447;-80
2022/05/20 00:36:30;;;;;;;32.80;22.83;;;;;;;18.44;60.79;101554.75;692955;28;1287;-80
2022/05/20 00:36:50;;;;;;;33.97;23.25;;;;;;;18.45;60.42;101572.38;690443;28;1250;-79
2022/05/20 00:37:11;;;;;;;33.35;22.77;;;;;;;18.49;60.77;101563.59;687977;28;1049;-79
2022/05/20 00:37:32;;;;;;;34.67;23.33;;;;;;;18.43;60.71;101555.63;693305;28;1126;-79
2022/05/20 00:37:53;;;;;;;33.00;23.23;;;;;;;18.42;60.85;101559.13;695900;28;1324;-80
2022/05/20 00:38:15;;;;;;;33.25;23.15;;;;;;;18.41;60.88;101554.72;693311;28;1391;-80
2022/05/20 00:38:36;;;;;;;32.97;23.00;;;;;;;18.46;60.93;101560.94;690576;28;1339;-80
2022/05/20 00:38:56;;;;;;;34.53;23.83;;;;;;;18.41;60.99;101565.28;682220;29;1145;-79
2022/05/20 00:39:18;;;;;;;36.85;25.15;;;;;;;18.36;61.05;101545.00;687833;28;1060;-80
2022/05/20 00:39:41;;;;;;;34.47;24.20;;;;;;;18.39;60.99;101561.75;687226;28;1126;-80
2022/05/20 00:40:04;;;;;;;31.55;22.73;;;;;;;18.30;60.80;101555.53;687658;28;1358;-80
2022/05/20 00:40:27;;;;;;;31.52;22.25;;;;;;;18.30;61.03;101558.16;682464;29;1346;-79
2022/05/20 00:40:50;;;;;;;34.92;22.90;;;;;;;18.27;61.20;101554.63;682513;29;1101;-80
2022/05/20 00:41:11;;;;;;;34.25;22.85;;;;;;;18.30;61.45;101560.81;687868;28;1513;-80
2022/05/20 00:41:33;;;;;;;35.80;22.90;;;;;;;18.22;61.24;101544.88;687991;28;1267;-80
2022/05/20 00:41:53;;;;;;;36.10;23.83;;;;;;;18.21;61.26;101544.88;690560;28;1091;-79
2022/05/20 00:42:17;;;;;;;36.75;23.90;;;;;;;18.18;61.22;101542.19;685208;28;1198;-80
2022/05/20 00:42:37;;;;;;;34.95;23.77;;;;;;;18.19;61.36;101554.56;693301;28;1109;-79
2022/05/20 00:43:26;;;;;;;31.80;21.88;;;;;;;18.18;61.37;101555.41;693320;28;1202;-80
2022/05/20 00:43:49;;;;;;;30.95;22.13;;;;;;;18.15;61.51;101558.03;690432;28;1341;-80
2022/05/20 00:44:10;;;;;;;31.13;23.15;;;;;;;18.06;61.44;101548.22;690512;28;1394;-79
2022/05/20 00:44:30;;;;;;;30.50;23.17;;;;;;;18.07;61.23;101545.59;687214;28;1218;-80
2022/05/20 00:44:51;;;;;;;31.30;22.88;;;;;;;18.08;61.69;101550.00;690645;28;1016;-80
2022/05/20 00:45:12;;;;;;;32.10;22.50;;;;;;;18.00;61.60;101543.78;687478;28;1330;-79
2022/05/20 00:45:33;;;;;;;37.08;22.52;;;;;;;18.00;61.73;101543.78;687857;28;1348;-79
2022/05/20 00:45:57;;;;;;;38.13;22.83;;;;;;;18.00;61.73;101543.78;688032;28;1222;-79
2022/05/20 00:46:23;;;;;;;39.45;23.05;;;;;;;17.99;61.79;101551.69;689811;28;1271;-80
2022/05/20 00:46:44;;;;;;;34.92;23.33;;;;;;;17.93;61.78;101550.78;690479;28;1048;-80
2022/05/20 00:47:04;;;;;;;34.17;23.50;;;;;;;17.93;61.84;101547.22;690489;28;1401;-79
2022/05/20 00:47:25;;;;;;;32.17;22.73;;;;;;;17.89;61.82;101545.44;687898;28;1446;-80
2022/05/20 00:47:46;;;;;;;29.90;21.85;;;;;;;17.85;61.87;101541.88;687782;28;996;-79
2022/05/20 00:48:07;;;;;;;29.77;21.83;;;;;;;17.88;61.99;101551.59;687850;28;862;-79
2022/05/20 00:48:29;;;;;;;31.05;22.48;;;;;;;17.85;62.01;101548.91;687672;28;1203;-79
2022/05/20 00:48:58;;;;;;;31.85;22.38;;;;;;;17.79;62.03;101542.72;690049;28;1379;-80
2022/05/20 00:49:19;;;;;;;36.70;22.50;;;;;;;17.74;62.10;101540.88;693157;28;1114;-80
2022/05/20 00:49:55;;;;;;;35.60;22.90;;;;;;;17.77;62.28;101544.44;692820;28;759;-80
2022/05/20 00:50:17;;;;;;;32.72;23.15;;;;;;;17.79;62.23;101549.75;690585;28;1095;-80
2022/05/20 00:50:43;;;;;;;35.13;23.67;;;;;;;17.73;62.25;101553.19;690101;28;1240;-80
2022/05/20 00:51:10;;;;;;;33.40;23.58;;;;;;;17.74;62.13;101551.44;685058;28;1337;-79
2022/05/20 00:51:53;;;;;;;35.42;23.50;;;;;;;17.70;62.40;101542.59;687821;28;1277;-80
2022/05/20 00:52:17;;;;;;;31.95;22.73;;;;;;;17.71;62.47;101551.41;695948;28;1114;-79
2022/05/20 00:52:41;;;;;;;33.10;23.45;;;;;;;17.70;62.36;101549.66;693388;28;854;-79
2022/05/20 00:53:03;;;;;;;35.72;24.15;;;;;;;17.66;62.63;101540.81;685108;28;1448;-80
2022/05/20 00:53:28;;;;;;;36.85;24.83;;;;;;;17.66;62.41;101546.09;687460;28;1242;-79
2022/05/20 00:54:06;;;;;;;36.08;24.08;;;;;;;17.65;62.72;101547.81;693051;28;1298;-79
2022/05/20 00:54:36;;;;;;;36.03;23.48;;;;;;;17.57;62.61;101536.31;687754;28;852;-79
2022/05/20 00:55:00;;;;;;;35.88;23.83;;;;;;;17.57;62.75;101536.31;687662;28;1484;-79
2022/05/20 00:55:23;;;;;;;37.55;24.77;;;;;;;17.54;62.82;101539.78;690151;28;1344;-80
2022/05/20 00:55:44;;;;;;;37.72;24.95;;;;;;;17.57;62.71;101540.72;695882;28;1277;-80
2022/05/20 00:56:08;;;;;;;34.33;24.15;;;;;;;17.50;62.93;101532.72;690469;28;1161;-79
2022/05/20 00:56:54;;;;;;;32.78;24.17;;;;;;;17.54;62.86;101545.06;692665;28;1133;-79
2022/05/20 00:57:20;;;;;;;34.75;23.77;;;;;;;17.51;62.81;101550.31;684835;28;1365;-79
2022/05/20 00:57:52;;;;;;;34.53;23.88;;;;;;;17.39;63.04;101529.06;687834;28;1409;-79
2022/05/20 00:58:19;;;;;;;32.97;22.58;;;;;;;17.40;62.93;101533.50;690632;28;1149;-79
2022/05/20 00:58:47;;;;;;;35.40;23.10;;;;;;;17.42;63.05;101544.94;693144;28;1388;-79
2022/05/20 00:59:11;;;;;;;36.85;24.35;;;;;;;17.39;63.17;101539.59;682634;28;1492;-80
2022/05/20 00:59:35;;;;;;;37.60;25.33;;;;;;;17.37;63.09;101546.63;690147;28;815;-79
2022/05/20 01:00:00;;;;;;;41.30;25.95;;;;;;;17.37;63.43;101551.91;690372;28;1049;-80
2022/05/20 01:00:24;;;;;;;37.75;25.02;;;;;;;17.35;63.44;101548.38;687812;28;1231;-79
2022/05/20 01:00:49;;;;;;;36.05;23.98;;;;;;;17.26;63.58;101534.19;685033;28;1081;-79
2022/05/20 01:01:10;;;;;;;33.08;23.45;;;;;;;17.31;63.59;101543.91;687829;28;1117;-80
2022/05/20 01:01:31;;;;;;;33.40;23.45;;;;;;;17.23;63.53;101539.41;687474;28;1179;-80
2022/05/20 01:01:55;;;;;;;31.03;22.70;;;;;;;17.28;63.46;101542.13;692303;28;1089;-80
2022/05/20 01:02:19;;;;;;;32.60;23.30;;;;;;;17.28;63.65;101550.06;692344;28;1363;-81
2022/05/20 01:02:40;;;;;;;35.70;24.00;;;;;;;17.25;63.79;101545.63;690592;28;1292;-80
2022/05/20 01:03:06;;;;;;;38.65;24.55;;;;;;;17.22;63.68;101545.56;682359;29;1269;-80
2022/05/20 01:03:29;;;;;;;37.10;24.37;;;;;;;17.22;63.70;101548.19;690421;28;1921;-80
2022/05/20 01:03:53;;;;;;;37.35;24.48;;;;;;;17.18;63.81;101535.81;687690;28;1228;-80
2022/05/20 01:04:16;;;;;;;37.28;24.83;;;;;;;17.12;63.79;101535.75;685110;28;886;-79
2022/05/20 01:04:38;;;;;;;36.03;24.67;;;;;;;17.13;64.01;101543.69;690683;28;815;-80
2022/05/20 01:05:03;;;;;;;35.35;24.63;;;;;;;17.11;64.19;101541.88;689995;28;1014;-80
2022/05/20 01:05:45;;;;;;;35.95;24.45;;;;;;;17.11;64.00;101539.25;690092;28;1163;-80
2022/05/20 01:06:07;;;;;;;35.13;24.70;;;;;;;17.13;64.11;101538.41;690033;28;2334;-80
2022/05/20 01:06:28;;;;;;;35.35;24.80;;;;;;;17.10;64.26;101533.06;690630;28;879;-80
2022/05/20 01:06:50;;;;;;;36.58;24.67;;;;;;;17.13;64.11;101542.78;687701;28;1152;-79
2022/05/20 01:07:12;;;;;;;36.38;23.90;;;;;;;17.06;64.14;101539.19;690000;28;1177;-81
2022/05/20 01:07:39;;;;;;;36.53;24.85;;;;;;;17.08;64.05;101542.72;685354;28;803;-79
2022/05/20 01:08:01;;;;;;;35.67;24.20;;;;;;;17.08;64.24;101544.50;690438;28;1241;-80
2022/05/20 01:08:26;;;;;;;36.20;24.00;;;;;;;17.07;64.25;101546.22;690569;28;1354;-79
2022/05/20 01:08:46;;;;;;;36.10;23.17;;;;;;;16.99;64.18;101532.94;687866;28;1111;-79
2022/05/20 01:09:07;;;;;;;38.58;23.73;;;;;;;17.06;64.20;101543.56;687841;28;1386;-79
2022/05/20 01:09:28;;;;;;;37.60;23.60;;;;;;;17.01;64.51;101542.63;687556;28;1154;-80
2022/05/20 01:09:49;;;;;;;36.17;24.38;;;;;;;17.01;64.37;101546.13;687397;28;1354;-80
2022/05/20 01:10:10;;;;;;;36.33;24.63;;;;;;;17.02;64.74;101547.03;692707;28;1170;-79
2022/05/20 01:10:31;;;;;;;37.10;24.45;;;;;;;16.94;64.56;101529.38;693307;28;1515;-80
2022/05/20 01:10:53;;;;;;;37.53;24.27;;;;;;;16.97;64.38;101537.31;693142;28;1278;-79
2022/05/20 01:11:13;;;;;;;35.90;24.20;;;;;;;16.97;64.70;101542.56;690582;28;1211;-80
2022/05/20 01:11:36;;;;;;;37.35;25.60;;;;;;;16.95;64.49;101532.88;687842;28;1398;-80
2022/05/20 01:12:03;;;;;;;41.72;26.17;;;;;;;16.98;64.65;101544.34;685176;28;811;-79
2022/05/20 01:12:27;;;;;;;41.03;25.25;;;;;;;17.01;64.54;101542.63;686935;28;1673;-79
2022/05/20 01:12:55;;;;;;;41.00;25.70;;;;;;;16.99;64.47;101543.47;685139;28;1151;-79
2022/05/20 01:13:20;;;;;;;37.13;25.70;;;;;;;16.98;64.46;101539.06;690382;28;1096;-80
2022/05/20 01:13:44;;;;;;;34.20;24.42;;;;;;;16.89;64.61;101543.34;689923;28;1074;-79
2022/05/20 01:14:07;;;;;;;33.30;24.15;;;;;;;16.94;64.79;101547.81;687810;28;1083;-80
2022/05/20 01:14:28;;;;;;;35.58;24.52;;;;;;;16.93;64.71;101551.31;685289;28;1322;-79
2022/05/20 01:14:49;;;;;;;35.10;24.73;;;;;;;16.93;64.50;101551.31;690431;28;1140;-79
2022/05/20 01:15:12;;;;;;;35.28;24.50;;;;;;;16.94;64.85;101553.09;687174;28;1344;-80
2022/05/20 01:15:34;;;;;;;32.75;23.13;;;;;;;16.91;64.74;101553.03;690417;28;1086;-79
2022/05/20 01:15:55;;;;;;;35.42;23.33;;;;;;;16.84;64.72;101540.66;684906;28;1275;-79
2022/05/20 01:16:17;;;;;;;36.83;24.45;;;;;;;16.92;64.83;101549.56;693200;28;1150;-79
2022/05/20 01:16:37;;;;;;;37.20;24.88;;;;;;;16.84;64.92;101544.16;693254;28;1386;-79
2022/05/20 01:16:58;;;;;;;35.78;24.73;;;;;;;16.84;64.86;101552.06;693149;28;967;-79
2022/05/20 01:17:19;;;;;;;32.92;23.52;;;;;;;16.84;64.90;101548.56;692616;28;1398;-80
2022/05/20 01:17:41;;;;;;;32.35;22.85;;;;;;;16.86;64.90;101554.72;690514;28;859;-80
2022/05/20 01:18:02;;;;;;;29.00;22.02;;;;;;;16.84;64.65;101556.47;693117;28;1278;-80
2022/05/20 01:18:23;;;;;;;32.40;23.25;;;;;;;16.80;64.91;101541.47;687826;28;1321;-80
2022/05/20 01:18:46;;;;;;;33.75;23.75;;;;;;;16.85;65.00;101553.84;690246;28;1213;-80
2022/05/20 01:19:16;;;;;;;35.65;24.65;;;;;;;16.80;64.88;101546.72;690461;28;1018;-79
2022/05/20 01:19:56;;;;;;;35.13;24.77;;;;;;;16.80;64.75;101550.25;692929;28;796;-79
2022/05/20 01:20:23;;;;;;;39.15;25.55;;;;;;;16.81;64.97;101553.78;687038;28;1349;-79
2022/05/20 01:20:47;;;;;;;38.88;25.42;;;;;;;16.71;65.03;101545.72;687800;28;1078;-79
2022/05/20 01:21:08;;;;;;;37.30;25.00;;;;;;;16.78;64.95;101551.09;685037;28;1293;-80
2022/05/20 01:21:28;;;;;;;36.20;24.88;;;;;;;16.71;65.10;101543.09;684513;28;1243;-79
2022/05/20 01:21:49;;;;;;;35.85;24.48;;;;;;;16.73;65.04;101551.03;690353;28;1227;-80
2022/05/20 01:22:12;;;;;;;36.63;24.73;;;;;;;16.75;65.18;101554.56;690536;28;1043;-79
2022/05/20 01:22:54;;;;;;;36.03;24.17;;;;;;;16.76;65.20;101555.44;687916;28;1541;-79
2022/05/20 01:23:20;;;;;;;36.35;23.58;;;;;;;16.71;65.27;101548.38;685041;28;1982;-79
2022/05/20 01:23:41;;;;;;;36.70;23.30;;;;;;;16.70;65.38;101549.25;687669;28;1902;-79
2022/05/20 01:24:03;;;;;;;36.53;23.65;;;;;;;16.71;65.30;101555.38;687819;28;1014;-79
2022/05/20 01:24:26;;;;;;;36.65;23.60;;;;;;;16.67;65.36;101543.91;685199;28;914;-79
2022/05/20 01:24:47;;;;;;;37.35;23.42;;;;;;;16.64;65.43;101549.13;685023;28;1358;-79
2022/05/20 01:25:10;;;;;;;35.43;23.03;;;;;;;16.64;65.50;101546.50;690469;28;1150;-80
2022/05/20 01:25:30;;;;;;;34.25;23.80;;;;;;;16.66;65.41;101555.31;693245;28;1356;-79
2022/05/20 01:25:54;;;;;;;32.78;23.98;;;;;;;16.67;65.63;101556.22;687741;28;1292;-79
2022/05/20 01:26:15;;;;;;;35.58;24.95;;;;;;;16.64;65.73;101557.03;692993;28;1039;-79
2022/05/20 01:26:35;;;;;;;36.67;24.92;;;;;;;16.61;65.70;101559.63;695587;28;1251;-79
2022/05/20 01:26:57;;;;;;;38.05;25.30;;;;;;;16.65;65.65;101565.84;690108;28;1859;-80
2022/05/20 01:27:18;;;;;;;37.70;24.60;;;;;;;16.59;65.57;101550.81;687870;28;989;-79
2022/05/20 01:27:42;;;;;;;36.93;25.03;;;;;;;16.57;65.71;101550.81;690352;28;1167;-80
2022/05/20 01:28:03;;;;;;;38.08;25.13;;;;;;;16.58;65.58;101549.03;690439;28;1141;-79
2022/05/20 01:28:27;;;;;;;37.20;25.20;;;;;;;16.62;65.57;101561.41;687808;28;1164;-79
2022/05/20 01:28:48;;;;;;;35.00;24.15;;;;;;;16.56;65.73;101545.50;690580;28;1144;-80
2022/05/20 01:29:08;;;;;;;33.73;24.03;;;;;;;16.57;65.52;101552.53;690035;28;1278;-79
2022/05/20 01:29:30;;;;;;;35.80;24.45;;;;;;;16.57;65.71;101558.72;690414;28;689;-79
2022/05/20 01:29:50;;;;;;;36.53;25.10;;;;;;;16.55;65.61;101546.38;693004;28;1023;-80
2022/05/20 01:30:14;;;;;;;38.53;25.50;;;;;;;16.55;65.60;101556.91;690505;28;1189;-79
2022/05/20 01:30:35;;;;;;;38.40;25.10;;;;;;;16.53;65.90;101548.09;687722;28;1450;-79
2022/05/20 01:30:59;;;;;;;35.78;24.42;;;;;;;16.56;65.80;101554.31;693166;28;1373;-79
2022/05/20 01:31:20;;;;;;;35.60;24.40;;;;;;;16.51;65.86;101553.34;687921;28;1108;-80
2022/05/20 01:31:46;;;;;;;34.80;24.07;;;;;;;16.51;65.80;101558.59;690642;28;775;-79
2022/05/20 01:34:01;;;;;;;36.45;24.75;;;;;;;16.48;65.81;101553.31;696481;28;1445;-80
2022/05/20 01:34:23;;;;;;;37.80;25.08;;;;;;;16.50;65.89;101550.66;695971;28;828;-79
2022/05/20 01:34:44;;;;;;;38.60;25.90;;;;;;;16.55;65.87;101559.53;690450;28;1243;-80
2022/05/20 01:35:10;;;;;;;40.55;26.65;;;;;;;16.55;66.01;101554.28;694756;28;1719;-79
2022/05/20 01:35:39;;;;;;;43.13;26.20;;;;;;;16.57;65.86;101563.97;693173;28;1344;-80
2022/05/20 01:36:02;;;;;;;42.22;25.30;;;;;;;16.51;66.11;101552.44;691443;28;1335;-79
2022/05/20 01:36:25;;;;;;;39.53;24.23;;;;;;;16.50;66.01;101548.03;687712;28;998;-79
2022/05/20 01:36:46;;;;;;;39.90;23.95;;;;;;;16.58;66.13;101563.13;687515;28;1367;-80
2022/05/20 01:37:06;;;;;;;43.60;25.00;;;;;;;16.54;66.19;101555.13;687834;28;1145;-80
2022/05/20 01:37:27;;;;;;;44.70;25.10;;;;;;;16.54;66.23;101556.00;690557;28;1068;-80
2022/05/20 01:37:47;;;;;;;43.80;25.35;;;;;;;16.52;66.00;101551.56;685041;28;1073;-79
2022/05/20 01:38:10;;;;;;;39.13;25.07;;;;;;;16.58;66.14;101554.31;682458;29;1057;-79
2022/05/20 01:38:31;;;;;;;37.80;24.80;;;;;;;16.59;66.27;101563.97;685170;28;1298;-79
2022/05/20 01:38:53;;;;;;;40.38;25.60;;;;;;;16.60;66.19;101557.88;685016;28;1153;-79
2022/05/20 01:39:18;;;;;;;39.90;25.73;;;;;;;16.57;66.20;101552.53;690508;28;1342;-80
2022/05/20 01:39:39;;;;;;;39.28;26.10;;;;;;;16.63;66.09;101565.81;687378;28;859;-79
2022/05/20 01:40:00;;;;;;;39.97;26.40;;;;;;;16.64;66.09;101566.69;690523;28;1238;-79
2022/05/20 01:40:21;;;;;;;42.47;26.73;;;;;;;16.68;66.17;101560.63;690437;28;1276;-80
2022/05/20 01:41:08;;;;;;;43.00;27.15;;;;;;;16.72;66.21;101568.59;685062;28;1379;-80
2022/05/20 01:41:45;;;;;;;44.20;27.30;;;;;;;16.75;66.22;101562.47;687517;28;1295;-79
2022/05/20 01:42:20;;;;;;;45.72;27.70;;;;;;;16.77;65.85;101567.78;693169;28;1092;-80
2022/05/20 01:42:59;;;;;;;44.63;27.60;;;;;;;16.74;66.01;101552.81;695385;28;941;-80
2022/05/20 01:43:34;;;;;;;46.75;27.40;;;;;;;16.75;65.76;101558.94;696006;28;1096;-80
2022/05/20 01:43:59;;;;;;;47.22;28.85;;;;;;;16.80;65.98;101554.63;692367;28;1075;-80
2022/05/20 01:44:32;;;;;;;45.95;28.88;;;;;;;16.79;65.64;101564.28;692972;28;1322;-80
2022/05/20 01:44:59;;;;;;;41.92;27.10;;;;;;;16.77;65.70;101560.75;690495;28;966;-80
2022/05/20 01:45:43;;;;;;;40.10;26.73;;;;;;;16.74;65.79;101551.91;687813;28;1176;-80
2022/05/20 01:46:28;;;;;;;40.55;28.00;;;;;;;16.75;65.63;101554.56;685598;28;1120;-80
2022/05/20 01:46:52;;;;;;;43.88;28.60;;;;;;;16.66;65.76;101542.13;685052;28;1222;-80
2022/05/20 01:47:30;;;;;;;44.63;28.10;;;;;;;16.72;65.64;101555.41;687753;28;1188;-80
2022/05/20 01:48:04;;;;;;;43.20;27.70;;;;;;;16.70;65.89;101554.50;687274;28;1927;-80
2022/05/20 01:48:37;;;;;;;41.33;27.05;;;;;;;16.63;65.83;101547.38;687154;28;1316;-80
2022/05/20 01:49:19;;;;;;;42.75;26.75;;;;;;;16.65;65.85;101550.91;690332;28;1183;-79
2022/05/20 01:49:51;;;;;;;44.00;27.70;;;;;;;16.66;65.88;101550.03;692089;28;1472;-79
2022/05/20 01:50:17;;;;;;;43.72;27.17;;;;;;;16.61;65.89;101543.84;689924;28;1197;-79
2022/05/20 01:50:48;;;;;;;42.75;26.55;;;;;;;16.55;65.80;101538.47;690548;28;1202;-79
2022/05/20 01:51:13;;;;;;;41.60;27.23;;;;;;;16.60;65.87;101552.59;690536;28;964;-79
2022/05/20 01:51:45;;;;;;;42.05;26.85;;;;;;;16.55;65.81;101549.88;693135;28;917;-80
2022/05/20 01:52:12;;;;;;;44.30;26.45;;;;;;;16.54;65.89;101553.38;694142;28;1216;-79
2022/05/20 01:53:07;;;;;;;43.45;26.60;;;;;;;16.56;66.09;101561.31;696714;28;793;-79
2022/05/20 01:53:50;;;;;;;40.30;27.05;;;;;;;16.54;66.01;101556.00;687173;28;875;-80